Time,TemperatureF,DewpointF,PressureIn,WindDirection,WindDirectionDegrees,WindSpeedMPH,WindSpeedGustMPH,Humidity,HourlyPrecipIn,Conditions,Clouds,dailyrainin,SoftwareType,DateUTC
2013-04-08 00:03:00,40.0,-99.9,29.90,ENE,66,0.0,1.0,-999,-99.99,,,-99.99,,2013-04-08 05:03:00,
2013-04-08 00:12:00,40.0,-99.9,29.90,ENE,66,0.0,1.0,-999,-99.99,,,-99.99,,2013-04-08 05:12:00,
2013-04-08 00:22:00,40.0,-99.9,29.90,ENE,66,0.0,1.0,-999,-99.99,,,-99.99,,2013-04-08 05:22:00,
2013-04-08 00:32:00,40.0,-99.9,29.88,ENE,66,0.0,1.0,-999,-99.99,,,-99.99,,2013-04-08 05:32:00,
2013-04-08 00:42:00,41.0,-99.9,29.89,ESE,110,0.0,2.0,-999,-99.99,,,-99.99,,2013-04-08 05:42:00,
2013-04-08 00:53:00,41.0,-99.9,29.89,ESE,110,0.0,2.0,-999,-99.99,,,-99.99,,2013-04-08 05:53:00,
2013-04-08 01:02:00,41.0,-99.9,29.89,SE,128,0.0,4.0,-999,-99.99,,,-99.99,,2013-04-08 06:02:00,
2013-04-08 01:12:00,42.0,-99.9,29.88,SSE,154,2.0,4.0,-999,-99.99,,,-99.99,,2013-04-08 06:12:00,
2013-04-08 01:22:00,42.0,-99.9,29.88,SSE,154,2.0,4.0,-999,-99.99,,,-99.99,,2013-04-08 06:22:00,
2013-04-08 01:32:00,43.0,-99.9,29.88,East,94,1.0,5.0,-999,-99.99,,,-99.99,,2013-04-08 06:32:00,
2013-04-08 01:43:00,43.0,-99.9,29.88,East,94,1.0,5.0,-999,-99.99,,,-99.99,,2013-04-08 06:43:00,
2013-04-08 01:53:00,43.0,-99.9,29.87,SE,142,1.0,8.0,-999,-99.99,,,-99.99,,2013-04-08 06:53:00,
2013-04-08 02:02:00,43.0,-99.9,29.86,ESE,108,4.0,9.0,-999,-99.99,,,-99.99,,2013-04-08 07:02:00,
2013-04-08 02:12:00,44.0,-99.9,29.88,SE,136,7.0,11.0,-999,-99.99,,,-99.99,,2013-04-08 07:12:00,
2013-04-08 02:22:00,44.0,-99.9,29.88,SE,136,7.0,11.0,-999,-99.99,,,-99.99,,2013-04-08 07:22:00,
2013-04-08 02:33:00,44.0,-99.9,29.88,SE,136,7.0,11.0,-999,-99.99,,,-99.99,,2013-04-08 07:33:00,
2013-04-08 02:42:00,44.0,-99.9,29.88,SE,136,7.0,11.0,-999,-99.99,,,-99.99,,2013-04-08 07:42:00,
2013-04-08 02:53:00,44.0,-99.9,29.84,SE,135,1.0,7.0,-999,-99.99,,,-99.99,,2013-04-08 07:53:00,
2013-04-08 03:02:00,44.0,-99.9,29.84,East,83,1.0,9.0,-999,-99.99,,,-99.99,,2013-04-08 08:02:00,
2013-04-08 03:12:00,44.0,-99.9,29.84,East,83,1.0,9.0,-999,-99.99,,,-99.99,,2013-04-08 08:12:00,
2013-04-08 03:22:00,44.0,-99.9,29.84,East,83,1.0,9.0,-999,-99.99,,,-99.99,,2013-04-08 08:22:00,
2013-04-08 03:33:00,44.0,-99.9,29.83,SE,132,2.0,6.0,-999,-99.99,,,-99.99,,2013-04-08 08:33:00,
2013-04-08 03:43:00,44.0,-99.9,29.81,SSE,148,4.0,11.0,-999,-99.99,,,-99.99,,2013-04-08 08:43:00,
2013-04-08 03:52:00,44.0,-99.9,29.81,SSE,148,4.0,11.0,-999,-99.99,,,-99.99,,2013-04-08 08:52:00,
2013-04-08 04:03:00,44.0,-99.9,29.80,ESE,113,2.0,5.0,-999,-99.99,,,-99.99,,2013-04-08 09:03:00,
2013-04-08 04:12:00,45.0,-99.9,29.80,SE,129,6.0,12.0,-999,-99.99,,,-99.99,,2013-04-08 09:12:00,
2013-04-08 04:23:00,45.0,-99.9,29.80,SE,129,6.0,12.0,-999,-99.99,,,-99.99,,2013-04-08 09:23:00,
2013-04-08 04:34:00,45.0,-99.9,29.80,SE,137,6.0,16.0,-999,-99.99,,,-99.99,,2013-04-08 09:34:00,
2013-04-08 04:43:00,45.0,-99.9,29.79,SE,142,5.0,12.0,-999,-99.99,,,-99.99,,2013-04-08 09:43:00,
2013-04-08 04:53:00,45.0,-99.9,29.79,SE,142,5.0,12.0,-999,-99.99,,,-99.99,,2013-04-08 09:53:00,
2013-04-08 05:03:00,45.0,-99.9,29.78,SE,140,5.0,11.0,-999,-99.99,,,-99.99,,2013-04-08 10:03:00,
2013-04-08 05:13:00,45.0,-99.9,29.78,ESE,114,4.0,10.0,-999,-99.99,,,-99.99,,2013-04-08 10:13:00,
2013-04-08 05:23:00,45.0,-99.9,29.78,ESE,114,4.0,10.0,-999,-99.99,,,-99.99,,2013-04-08 10:23:00,
2013-04-08 05:33:00,45.0,-99.9,29.78,SSE,152,5.0,12.0,-999,-99.99,,,-99.99,,2013-04-08 10:33:00,
2013-04-08 05:43:00,45.0,-99.9,29.78,SSE,152,5.0,12.0,-999,-99.99,,,-99.99,,2013-04-08 10:43:00,
2013-04-08 05:53:00,45.0,-99.9,29.78,ESE,122,4.0,9.0,-999,-99.99,,,-99.99,,2013-04-08 10:53:00,
2013-04-08 06:03:00,45.0,-99.9,29.77,ESE,110,5.0,9.0,-999,-99.99,,,-99.99,,2013-04-08 11:03:00,
2013-04-08 06:12:00,46.0,-99.9,29.77,East,90,6.0,14.0,-999,-99.99,,,-99.99,,2013-04-08 11:12:00,
2013-04-08 06:23:00,46.0,-99.9,29.77,East,90,6.0,14.0,-999,-99.99,,,-99.99,,2013-04-08 11:23:00,
2013-04-08 06:33:00,46.0,-99.9,29.77,SSE,150,1.0,7.0,-999,-99.99,,,-99.99,,2013-04-08 11:33:00,
2013-04-08 06:43:00,46.0,-99.9,29.77,SSE,150,1.0,7.0,-999,-99.99,,,-99.99,,2013-04-08 11:43:00,
2013-04-08 06:53:00,46.0,-99.9,29.75,East,91,1.0,7.0,-999,-99.99,,,-99.99,,2013-04-08 11:53:00,
2013-04-08 07:03:00,46.0,-99.9,29.76,ESE,114,3.0,8.0,-999,-99.99,,,-99.99,,2013-04-08 12:03:00,
2013-04-08 07:12:00,46.0,-99.9,29.76,ESE,114,3.0,8.0,-999,-99.99,,,-99.99,,2013-04-08 12:12:00,
2013-04-08 07:23:00,45.0,-99.9,29.75,SSE,166,4.0,9.0,-999,-99.99,,,-99.99,,2013-04-08 12:23:00,
2013-04-08 07:33:00,45.0,-99.9,29.73,ESE,108,1.0,6.0,-999,-99.99,,,-99.99,,2013-04-08 12:33:00,
2013-04-08 07:43:00,45.0,-99.9,29.73,ESE,108,1.0,6.0,-999,-99.99,,,-99.99,,2013-04-08 12:43:00,
2013-04-08 07:53:00,44.0,-99.9,29.71,SSE,158,2.0,12.0,-999,-99.99,,,-99.99,,2013-04-08 12:53:00,
2013-04-08 08:03:00,45.0,-99.9,29.70,ESE,102,2.0,11.0,-999,-99.99,,,-99.99,,2013-04-08 13:03:00,
2013-04-08 08:12:00,45.0,-99.9,29.69,ESE,112,3.0,12.0,-999,-99.99,,,-99.99,,2013-04-08 13:12:00,
2013-04-08 08:22:00,45.0,-99.9,29.69,ESE,112,3.0,12.0,-999,-99.99,,,-99.99,,2013-04-08 13:22:00,
2013-04-08 08:33:00,45.0,-99.9,29.68,SSE,148,4.0,11.0,-999,-99.99,,,-99.99,,2013-04-08 13:33:00,
2013-04-08 08:43:00,45.0,-99.9,29.68,SSE,148,4.0,11.0,-999,-99.99,,,-99.99,,2013-04-08 13:43:00,
2013-04-08 08:53:00,46.0,-99.9,29.68,SSE,147,3.0,12.0,-999,-99.99,,,-99.99,,2013-04-08 13:53:00,
2013-04-08 09:03:00,47.0,-99.9,29.68,SE,145,4.0,13.0,-999,-99.99,,,-99.99,,2013-04-08 14:03:00,
2013-04-08 09:12:00,49.0,-99.9,29.67,SE,146,8.0,16.0,-999,-99.99,,,-99.99,,2013-04-08 14:12:00,
2013-04-08 09:22:00,49.0,-99.9,29.67,SE,146,8.0,16.0,-999,-99.99,,,-99.99,,2013-04-08 14:22:00,
2013-04-08 09:33:00,50.0,-99.9,29.66,ESE,122,6.0,12.0,-999,-99.99,,,-99.99,,2013-04-08 14:33:00,
2013-04-08 09:43:00,52.0,-99.9,29.66,SSE,158,6.0,12.0,-999,-99.99,,,-99.99,,2013-04-08 14:43:00,
2013-04-08 09:53:00,52.0,-99.9,29.66,SSE,158,6.0,12.0,-999,-99.99,,,-99.99,,2013-04-08 14:53:00,
2013-04-08 10:02:00,53.0,-99.9,29.64,SSE,163,5.0,11.0,-999,-99.99,,,-99.99,,2013-04-08 15:02:00,
2013-04-08 10:12:00,57.0,-99.9,29.64,SSE,147,8.0,15.0,-999,-99.99,,,-99.99,,2013-04-08 15:12:00,
2013-04-08 10:22:00,57.0,-99.9,29.64,SSE,147,8.0,15.0,-999,-99.99,,,-99.99,,2013-04-08 15:22:00,
2013-04-08 10:35:00,57.0,-99.9,29.64,SSE,166,6.0,16.0,-999,-99.99,,,-99.99,,2013-04-08 15:35:00,
2013-04-08 10:43:00,57.0,-99.9,29.64,SSE,166,6.0,16.0,-999,-99.99,,,-99.99,,2013-04-08 15:43:00,
2013-04-08 10:53:00,58.0,-99.9,29.64,South,187,4.0,14.0,-999,-99.99,,,-99.99,,2013-04-08 15:53:00,
2013-04-08 11:03:00,58.0,-99.9,29.64,SSW,197,6.0,15.0,-999,-99.99,,,-99.99,,2013-04-08 16:03:00,
2013-04-08 11:13:00,61.0,-99.9,29.63,SSW,194,5.0,17.0,-999,-99.99,,,-99.99,,2013-04-08 16:13:00,
2013-04-08 11:23:00,61.0,-99.9,29.63,SSW,194,5.0,17.0,-999,-99.99,,,-99.99,,2013-04-08 16:23:00,
2013-04-08 11:33:00,61.0,-99.9,29.63,SSW,194,5.0,17.0,-999,-99.99,,,-99.99,,2013-04-08 16:33:00,
2013-04-08 11:42:00,62.0,-99.9,29.63,SW,227,8.0,25.0,-999,-99.99,,,-99.99,,2013-04-08 16:42:00,
2013-04-08 11:54:00,63.0,-99.9,29.63,West,261,7.0,24.0,-999,-99.99,,,-99.99,,2013-04-08 16:54:00,
2013-04-08 12:03:00,64.0,-99.9,29.64,WSW,248,8.0,33.0,-999,-99.99,,,-99.99,,2013-04-08 17:03:00,
2013-04-08 12:12:00,63.0,-99.9,29.63,West,267,10.0,26.0,-999,-99.99,,,-99.99,,2013-04-08 17:12:00,
2013-04-08 12:23:00,63.0,-99.9,29.63,West,267,10.0,26.0,-999,-99.99,,,-99.99,,2013-04-08 17:23:00,
2013-04-08 12:33:00,63.0,-99.9,29.64,WSW,250,10.0,25.0,-999,-99.99,,,-99.99,,2013-04-08 17:33:00,
2013-04-08 12:45:00,63.0,-99.9,29.64,WSW,250,10.0,25.0,-999,-99.99,,,-99.99,,2013-04-08 17:45:00,
2013-04-08 12:53:00,62.0,-99.9,29.64,WSW,257,6.0,23.0,-999,-99.99,,,-99.99,,2013-04-08 17:53:00,
2013-04-08 13:02:00,62.0,-99.9,29.64,WSW,251,8.0,25.0,-999,-99.99,,,-99.99,,2013-04-08 18:02:00,
2013-04-08 13:12:00,64.0,-99.9,29.66,SW,236,6.0,23.0,-999,-99.99,,,-99.99,,2013-04-08 18:12:00,
2013-04-08 13:23:00,64.0,-99.9,29.66,SW,236,6.0,23.0,-999,-99.99,,,-99.99,,2013-04-08 18:23:00,
2013-04-08 13:32:00,64.0,-99.9,29.67,WSW,251,9.0,25.0,-999,-99.99,,,-99.99,,2013-04-08 18:32:00,
2013-04-08 13:43:00,64.0,-99.9,29.68,WNW,294,6.0,20.0,-999,-99.99,,,-99.99,,2013-04-08 18:43:00,
2013-04-08 13:53:00,64.0,-99.9,29.68,WNW,294,6.0,20.0,-999,-99.99,,,-99.99,,2013-04-08 18:53:00,
2013-04-08 14:03:00,64.0,-99.9,29.69,West,265,5.0,11.0,-999,-99.99,,,-99.99,,2013-04-08 19:03:00,
2013-04-08 14:13:00,64.0,-99.9,29.70,WNW,283,4.0,13.0,-999,-99.99,,,-99.99,,2013-04-08 19:13:00,
2013-04-08 14:23:00,64.0,-99.9,29.70,WNW,283,4.0,13.0,-999,-99.99,,,-99.99,,2013-04-08 19:23:00,
2013-04-08 14:34:00,63.0,-99.9,29.71,WNW,293,5.0,13.0,-999,-99.99,,,-99.99,,2013-04-08 19:34:00,
2013-04-08 14:43:00,63.0,-99.9,29.72,West,281,5.0,12.0,-999,-99.99,,,-99.99,,2013-04-08 19:43:00,
2013-04-08 14:53:00,63.0,-99.9,29.72,West,281,5.0,12.0,-999,-99.99,,,-99.99,,2013-04-08 19:53:00,
2013-04-08 15:02:00,63.0,-99.9,29.72,WNW,297,5.0,13.0,-999,-99.99,,,-99.99,,2013-04-08 20:02:00,
2013-04-08 15:12:00,62.0,-99.9,29.72,WNW,290,5.0,10.0,-999,-99.99,,,-99.99,,2013-04-08 20:12:00,
2013-04-08 15:23:00,62.0,-99.9,29.72,WNW,290,5.0,10.0,-999,-99.99,,,-99.99,,2013-04-08 20:23:00,
2013-04-08 15:33:00,62.0,-99.9,29.73,West,271,3.0,15.0,-999,-99.99,,,-99.99,,2013-04-08 20:33:00,
2013-04-08 15:43:00,62.0,-99.9,29.73,West,271,3.0,15.0,-999,-99.99,,,-99.99,,2013-04-08 20:43:00,
2013-04-08 15:53:00,59.0,-99.9,29.75,NW,311,4.0,7.0,-999,-99.99,,,-99.99,,2013-04-08 20:53:00,
2013-04-08 16:02:00,58.0,-99.9,29.75,NW,305,3.0,11.0,-999,-99.99,,,-99.99,,2013-04-08 21:02:00,
2013-04-08 16:12:00,56.0,-99.9,29.77,NNW,334,4.0,9.0,-999,-99.99,,,-99.99,,2013-04-08 21:12:00,
2013-04-08 16:22:00,56.0,-99.9,29.77,NNW,334,4.0,9.0,-999,-99.99,,,-99.99,,2013-04-08 21:22:00,
2013-04-08 16:33:00,57.0,-99.9,29.77,North,356,1.0,5.0,-999,-99.99,,,-99.99,,2013-04-08 21:33:00,
2013-04-08 16:43:00,57.0,-99.9,29.77,North,356,1.0,5.0,-999,-99.99,,,-99.99,,2013-04-08 21:43:00,
2013-04-08 16:53:00,52.0,-99.9,29.79,North,351,7.0,13.0,-999,-99.99,,,-99.99,,2013-04-08 21:53:00,
2013-04-08 17:03:00,51.0,-99.9,29.80,NNE,12,3.0,9.0,-999,-99.99,,,-99.99,,2013-04-08 22:03:00,
2013-04-08 17:13:00,51.0,-99.9,29.81,NNE,31,4.0,10.0,-999,-99.99,,,-99.99,,2013-04-08 22:13:00,
2013-04-08 17:23:00,51.0,-99.9,29.81,NNE,31,4.0,10.0,-999,-99.99,,,-99.99,,2013-04-08 22:23:00,
2013-04-08 17:32:00,51.0,-99.9,29.81,NNE,31,4.0,10.0,-999,-99.99,,,-99.99,,2013-04-08 22:32:00,
2013-04-08 17:44:00,49.0,-99.9,29.82,North,3,4.0,12.0,-999,-99.99,,,-99.99,,2013-04-08 22:44:00,
2013-04-08 17:53:00,48.0,-99.9,29.83,East,87,1.0,10.0,-999,-99.99,,,-99.99,,2013-04-08 22:53:00,
2013-04-08 18:03:00,47.0,-99.9,29.83,NNE,15,2.0,11.0,-999,-99.99,,,-99.99,,2013-04-08 23:03:00,
2013-04-08 18:13:00,47.0,-99.9,29.83,NNE,15,2.0,11.0,-999,-99.99,,,-99.99,,2013-04-08 23:13:00,
2013-04-08 18:22:00,47.0,-99.9,29.83,NNE,15,2.0,11.0,-999,-99.99,,,-99.99,,2013-04-08 23:22:00,
2013-04-08 18:32:00,46.0,-99.9,29.84,NNE,25,3.0,9.0,-999,-99.99,,,-99.99,,2013-04-08 23:32:00,
2013-04-08 18:43:00,45.0,-99.9,29.85,North,10,2.0,5.0,-999,-99.99,,,-99.99,,2013-04-08 23:43:00,
2013-04-08 18:52:00,45.0,-99.9,29.85,North,10,2.0,5.0,-999,-99.99,,,-99.99,,2013-04-08 23:52:00,
2013-04-08 19:02:00,45.0,-99.9,29.85,NNE,13,0.0,8.0,-999,-99.99,,,-99.99,,2013-04-09 00:02:00,
2013-04-08 19:13:00,45.0,-99.9,29.85,NNE,13,0.0,8.0,-999,-99.99,,,-99.99,,2013-04-09 00:13:00,
2013-04-08 19:22:00,43.0,-99.9,29.86,NNE,25,4.0,8.0,-999,-99.99,,,-99.99,,2013-04-09 00:22:00,
2013-04-08 19:32:00,42.0,-99.9,29.86,NNE,15,4.0,10.0,-999,-99.99,,,-99.99,,2013-04-09 00:32:00,
2013-04-08 19:42:00,41.0,-99.9,29.87,ENE,73,1.0,5.0,-999,-99.99,,,-99.99,,2013-04-09 00:42:00,
2013-04-08 19:52:00,41.0,-99.9,29.87,ENE,73,1.0,5.0,-999,-99.99,,,-99.99,,2013-04-09 00:52:00,
2013-04-08 20:03:00,41.0,-99.9,29.87,North,0,1.0,7.0,-999,-99.99,,,-99.99,,2013-04-09 01:03:00,
2013-04-08 20:12:00,40.0,-99.9,29.88,NNE,29,4.0,7.0,-999,-99.99,,,-99.99,,2013-04-09 01:12:00,
2013-04-08 20:22:00,40.0,-99.9,29.88,NNE,29,4.0,7.0,-999,-99.99,,,-99.99,,2013-04-09 01:22:00,
2013-04-08 20:34:00,40.0,-99.9,29.88,NNE,16,1.0,7.0,-999,-99.99,,,-99.99,,2013-04-09 01:34:00,
2013-04-08 20:42:00,40.0,-99.9,29.88,NE,53,5.0,9.0,-999,-99.99,,,-99.99,,2013-04-09 01:42:00,
2013-04-08 20:53:00,40.0,-99.9,29.88,NE,53,5.0,9.0,-999,-99.99,,,-99.99,,2013-04-09 01:53:00,
2013-04-08 21:02:00,40.0,-99.9,29.88,North,0,0.0,8.0,-999,-99.99,,,-99.99,,2013-04-09 02:02:00,
2013-04-08 21:13:00,40.0,-99.9,29.88,North,0,0.0,8.0,-999,-99.99,,,-99.99,,2013-04-09 02:13:00,
2013-04-08 21:22:00,40.0,-99.9,29.90,ENE,76,3.0,8.0,-999,-99.99,,,-99.99,,2013-04-09 02:22:00,
2013-04-08 21:33:00,40.0,-99.9,29.91,NE,55,2.0,5.0,-999,-99.99,,,-99.99,,2013-04-09 02:33:00,
2013-04-08 21:44:00,40.0,-99.9,29.91,North,6,0.0,6.0,-999,-99.99,,,-99.99,,2013-04-09 02:44:00,
2013-04-08 21:52:00,40.0,-99.9,29.91,North,6,0.0,6.0,-999,-99.99,,,-99.99,,2013-04-09 02:52:00,
2013-04-08 22:02:00,40.0,-99.9,29.92,NNE,17,3.0,6.0,-999,-99.99,,,-99.99,,2013-04-09 03:02:00,
2013-04-08 22:12:00,40.0,-99.9,29.92,NNE,17,3.0,6.0,-999,-99.99,,,-99.99,,2013-04-09 03:12:00,
2013-04-08 22:22:00,39.0,-99.9,29.92,North,4,1.0,4.0,-999,-99.99,,,-99.99,,2013-04-09 03:22:00,
2013-04-08 22:33:00,39.0,-99.9,29.92,NNE,33,1.0,6.0,-999,-99.99,,,-99.99,,2013-04-09 03:33:00,
2013-04-08 22:43:00,39.0,-99.9,29.92,NNE,33,1.0,6.0,-999,-99.99,,,-99.99,,2013-04-09 03:43:00,
2013-04-08 22:53:00,40.0,-99.9,29.93,NNE,33,0.0,0.0,-999,-99.99,,,-99.99,,2013-04-09 03:53:00,
2013-04-08 23:03:00,40.0,-99.9,29.94,NE,34,0.0,1.0,-999,-99.99,,,-99.99,,2013-04-09 04:03:00,
2013-04-08 23:13:00,40.0,-99.9,29.94,NE,34,0.0,1.0,-999,-99.99,,,-99.99,,2013-04-09 04:13:00,
2013-04-08 23:23:00,40.0,-99.9,29.95,ESE,114,1.0,3.0,-999,-99.99,,,-99.99,,2013-04-09 04:23:00,
2013-04-08 23:33:00,40.0,-99.9,29.95,ESE,114,1.0,3.0,-999,-99.99,,,-99.99,,2013-04-09 04:33:00,
2013-04-08 23:43:00,40.0,-99.9,29.95,ESE,114,1.0,3.0,-999,-99.99,,,-99.99,,2013-04-09 04:43:00,
2013-04-08 23:53:00,40.0,-99.9,29.95,ESE,114,1.0,3.0,-999,-99.99,,,-99.99,,2013-04-09 04:53:00,